Michigan City, IN (46360)

6:51 AM CST on February 06, 2016 (GMT -0600)
Coolspring Township on 400N | | Change Station
CLOSE
Current Station
Personal Weather Station
Location: Michigan City, IN
Elevation: 643 ft
Nearby Weather Stations

Elev 643 ft 41.67 °N, 86.87 °W | Updated 4 seconds ago

Overcast
Overcast
22.5 °F
Feels Like 22 °F
N
0.0
Wind Variable Wind from East
Gusts 0.0 mph

Today
High -- | Low -- °F
--% Chance of Precip.
Yesterday
High -- | Low -- °F
Precip. -- in
Pressure 30.30 in
Visibility 7.0 miles
Clouds Mostly Cloudy 7000 ft
Windchill 22 °F
Dew Point 21 °F
Humidity 94%
Rainfall 0.00 in
Snow Depth Not available.
6:54 AM 5:08 PM
Waning Crescent, 6% visible
METAR KMGC 061235Z AUTO 00000KT 7SM BKN070 M05/M05 A3030 RMK AO2
Pressure 30.30 in
Visibility 7.0 miles
Clouds Mostly Cloudy 7000 ft
Windchill 22 °F
Dew Point 21 °F
Humidity 94%
Rainfall 0.00 in
Snow Depth Not available.
6:54 AM 5:08 PM
Waning Crescent, 6% visible
METAR KMGC 061235Z AUTO 00000KT 7SM BKN070 M05/M05 A3030 RMK AO2

10-Day Weather Forecast

Almanac

Astronomy

Feb. 06, 2016 Rise Set
Actual Time
Civil Twilight
Nautical Twilight
Astronomical Twilight
Moon
Length of Visible Light
Length of Day
Tomorrow will be .
, % of the Moon is Illuminated

Today's Extremes

State Highs State Lows

Community

WunderPhotos

Upload Photos

1,890,954 photos uploaded!

WunderBlog® & News

Nearby

Air Quality

  Air Quality AQ Index Pollutant
Not available.

Snow Depth

Station Depth Elevation

Earthquake Activity

City Distance Mag. Time & Date
Minimum magnitude displayed is 2.5.

Coastal Water Temperatures

Place Temperature

Stations

Nearby Weather Stations

Station Location Temp. Windchill Dew Point Humidity Wind Precip. Elev Updated Type
                   

Watches & Warnings

There are currently no watches in effect.